createdAt,value
2023-05-25T00:01:50.485Z,21.44
2023-05-25T00:04:19.581Z,21.40
2023-05-25T00:06:47.565Z,21.39
2023-05-25T00:09:15.217Z,21.35
2023-05-25T00:11:42.447Z,21.46
2023-05-25T00:14:09.924Z,21.44
2023-05-25T00:16:37.645Z,21.41
2023-05-25T00:19:06.943Z,21.39
2023-05-25T00:21:34.393Z,21.30
2023-05-25T00:24:01.655Z,21.36
2023-05-25T00:26:28.961Z,21.30
2023-05-25T00:28:56.353Z,21.34
2023-05-25T00:31:23.812Z,21.41
2023-05-25T00:33:51.244Z,21.31
2023-05-25T00:36:18.522Z,21.28
2023-05-25T00:38:46.007Z,21.30
2023-05-25T00:41:13.481Z,21.40
2023-05-25T00:43:40.887Z,21.45
2023-05-25T00:46:10.555Z,21.33
2023-05-25T00:48:39.346Z,21.13
2023-05-25T00:51:07.385Z,21.16
2023-05-25T00:53:37.152Z,21.07
2023-05-25T00:56:18.102Z,21.00
2023-05-25T00:58:48.460Z,20.76
2023-05-25T01:01:16.248Z,20.79
2023-05-25T01:03:48.296Z,20.75
2023-05-25T01:06:17.074Z,20.75
2023-05-25T01:08:54.427Z,20.75
2023-05-25T01:11:32.571Z,20.77
2023-05-25T01:14:01.517Z,20.94
2023-05-25T01:16:29.805Z,20.79
2023-05-25T01:18:57.752Z,20.88
2023-05-25T01:21:48.179Z,20.74
2023-05-25T01:24:27.605Z,20.82
2023-05-25T01:27:05.789Z,20.48
2023-05-25T01:29:35.477Z,20.09
2023-05-25T01:32:04.676Z,19.73
2023-05-25T01:34:36.078Z,19.49
2023-05-25T01:37:03.584Z,19.29
2023-05-25T01:39:31.027Z,19.39
2023-05-25T01:42:01.848Z,19.13
2023-05-25T01:44:30.000Z,19.04
2023-05-25T01:47:15.582Z,19.04
2023-05-25T01:49:55.968Z,18.95
2023-05-25T01:52:28.093Z,19.03
2023-05-25T01:55:04.277Z,19.21
2023-05-25T01:57:37.382Z,19.29
2023-05-25T02:00:05.732Z,19.24
2023-05-25T02:02:42.964Z,19.22
2023-05-25T02:05:11.642Z,19.14
2023-05-25T02:07:39.671Z,19.22
2023-05-25T02:10:07.957Z,19.17
2023-05-25T02:12:35.908Z,19.17
2023-05-25T02:15:05.091Z,19.19
2023-05-25T02:17:32.534Z,19.11
2023-05-25T02:20:00.019Z,19.09
2023-05-25T02:22:27.575Z,19.45
2023-05-25T02:24:55.070Z,19.26
2023-05-25T02:27:23.101Z,19.07
2023-05-25T02:29:50.764Z,19.09
2023-05-25T02:32:18.240Z,19.19
2023-05-25T02:34:46.983Z,19.18
2023-05-25T02:37:14.332Z,19.10
2023-05-25T02:39:42.386Z,19.15
2023-05-25T02:42:09.766Z,19.19
2023-05-25T02:44:37.352Z,19.31
2023-05-25T02:47:06.843Z,19.16
2023-05-25T02:49:34.583Z,19.14
2023-05-25T02:52:02.279Z,18.94
2023-05-25T02:54:29.604Z,19.05
2023-05-25T02:56:56.923Z,18.81
2023-05-25T02:59:25.390Z,18.66
2023-05-25T03:01:52.806Z,18.67
2023-05-25T03:04:20.257Z,18.59
2023-05-25T03:06:47.965Z,18.51
2023-05-25T03:09:21.809Z,18.65
2023-05-25T03:11:50.772Z,18.75
2023-05-25T03:14:20.864Z,18.94
2023-05-25T03:16:56.672Z,18.87
2023-05-25T03:19:24.957Z,19.04
2023-05-25T03:21:52.268Z,18.84
2023-05-25T03:24:20.278Z,18.80
2023-05-25T03:26:47.723Z,18.74
2023-05-25T03:29:16.032Z,18.66
2023-05-25T03:31:52.185Z,18.55
2023-05-25T03:34:24.755Z,18.58
2023-05-25T03:36:54.297Z,18.60
2023-05-25T03:39:22.300Z,18.54
2023-05-25T03:41:51.309Z,18.49
2023-05-25T03:44:19.008Z,18.55
2023-05-25T03:46:46.954Z,18.74
2023-05-25T03:49:14.483Z,18.83
2023-05-25T03:51:43.254Z,19.00
2023-05-25T03:54:11.121Z,19.15
2023-05-25T03:56:38.433Z,19.15
2023-05-25T03:59:06.285Z,18.92
2023-05-25T04:01:33.616Z,19.03
2023-05-25T04:04:02.970Z,19.13
2023-05-25T04:06:30.294Z,19.15
2023-05-25T04:08:58.025Z,19.11
2023-05-25T04:11:27.546Z,19.06
2023-05-25T04:13:54.788Z,19.11
2023-05-25T04:16:25.942Z,19.10
2023-05-25T04:18:53.356Z,19.12
2023-05-25T04:21:21.807Z,19.17
2023-05-25T04:23:49.788Z,19.15
2023-05-25T04:26:17.202Z,19.12
2023-05-25T04:28:46.947Z,19.18
2023-05-25T04:31:21.635Z,19.21
2023-05-25T04:34:15.119Z,19.13
2023-05-25T04:36:50.406Z,19.12
2023-05-25T04:39:18.682Z,19.17
2023-05-25T04:41:53.042Z,19.12
2023-05-25T04:44:20.663Z,19.20
2023-05-25T04:46:55.433Z,19.18
2023-05-25T04:49:28.869Z,19.08
2023-05-25T04:51:56.172Z,18.92
2023-05-25T04:54:24.403Z,18.89
2023-05-25T04:56:51.847Z,18.88
2023-05-25T04:59:19.243Z,18.93
2023-05-25T05:01:47.998Z,18.80
2023-05-25T05:04:17.989Z,18.69
2023-05-25T05:06:46.230Z,18.64
2023-05-25T05:09:20.217Z,18.68
2023-05-25T05:11:48.746Z,18.86
2023-05-25T05:14:17.026Z,18.95
2023-05-25T05:16:47.999Z,19.01
2023-05-25T05:19:15.661Z,19.36
2023-05-25T05:21:45.379Z,19.51
2023-05-25T05:24:13.262Z,19.70
2023-05-25T05:26:56.387Z,19.66
2023-05-25T05:29:34.707Z,19.63
2023-05-25T05:32:02.197Z,19.67
2023-05-25T05:34:30.659Z,19.67
2023-05-25T05:37:00.114Z,19.86
2023-05-25T05:39:28.472Z,19.86
2023-05-25T05:41:56.076Z,19.94
2023-05-25T05:44:26.820Z,19.89
2023-05-25T05:47:02.082Z,19.86
2023-05-25T05:49:31.238Z,19.82
2023-05-25T05:51:59.804Z,19.82
2023-05-25T05:54:28.259Z,19.77
2023-05-25T05:56:57.085Z,19.82
2023-05-25T05:59:24.412Z,19.94
2023-05-25T06:01:51.845Z,19.99
2023-05-25T06:04:19.299Z,20.01
2023-05-25T06:06:46.984Z,19.97
2023-05-25T06:09:14.471Z,20.02
2023-05-25T06:11:41.914Z,20.02
2023-05-25T06:14:11.328Z,20.13
2023-05-25T06:16:38.661Z,20.06
2023-05-25T06:19:05.957Z,19.99
2023-05-25T06:21:33.330Z,20.10
2023-05-25T06:24:02.831Z,20.10
2023-05-25T06:26:30.105Z,19.98
2023-05-25T06:28:58.251Z,20.16
2023-05-25T06:31:25.932Z,20.04
2023-05-25T06:33:53.400Z,19.98
2023-05-25T06:36:21.839Z,19.91
2023-05-25T06:38:49.111Z,19.90
2023-05-25T06:41:16.477Z,19.99
2023-05-25T06:43:43.947Z,20.05
2023-05-25T06:46:34.419Z,20.06
2023-05-25T06:49:02.342Z,20.13
2023-05-25T06:51:29.567Z,20.13
2023-05-25T06:53:57.122Z,20.18
2023-05-25T06:56:24.517Z,20.18
2023-05-25T06:58:51.892Z,20.39
2023-05-25T07:01:19.329Z,20.43
2023-05-25T07:03:46.660Z,20.38
2023-05-25T07:06:15.163Z,20.49
2023-05-25T07:08:42.635Z,20.53
2023-05-25T07:11:12.527Z,20.75
2023-05-25T07:13:40.484Z,20.66
2023-05-25T07:16:07.848Z,20.92
2023-05-25T07:18:35.266Z,21.30
2023-05-25T07:21:03.427Z,21.72
2023-05-25T07:23:30.785Z,21.37
2023-05-25T07:25:58.119Z,21.64
2023-05-25T07:28:25.605Z,21.75
2023-05-25T07:30:52.941Z,21.63
2023-05-25T07:33:20.247Z,21.56
2023-05-25T07:35:47.607Z,21.66
2023-05-25T07:38:14.973Z,21.50
2023-05-25T07:40:42.393Z,21.50
2023-05-25T07:43:09.744Z,21.54
2023-05-25T07:45:37.069Z,21.41
2023-05-25T07:48:07.148Z,21.43
2023-05-25T07:50:34.553Z,21.62
2023-05-25T07:53:01.885Z,21.64
2023-05-25T07:55:29.192Z,21.74
2023-05-25T07:57:56.524Z,21.93
2023-05-25T08:00:24.158Z,21.58
2023-05-25T08:02:51.719Z,21.49
2023-05-25T08:05:19.318Z,21.61
2023-05-25T08:07:46.770Z,21.46
2023-05-25T08:10:16.882Z,21.32
2023-05-25T08:12:49.524Z,21.43
2023-05-25T08:15:18.166Z,21.37
2023-05-25T08:17:45.742Z,21.30
2023-05-25T08:20:14.525Z,21.02
2023-05-25T08:22:42.731Z,20.97
2023-05-25T08:25:10.228Z,20.94
2023-05-25T08:27:37.934Z,20.97
2023-05-25T08:30:06.097Z,20.93
2023-05-25T08:32:33.655Z,21.03
2023-05-25T08:35:02.041Z,21.08
2023-05-25T08:37:32.303Z,21.02
2023-05-25T08:40:02.554Z,21.16
2023-05-25T08:42:30.113Z,21.08
2023-05-25T08:44:58.946Z,20.86
2023-05-25T08:47:32.732Z,20.90
2023-05-25T08:50:01.692Z,21.03
2023-05-25T08:52:34.260Z,20.97
2023-05-25T08:55:07.545Z,21.10
2023-05-25T08:57:41.512Z,21.22
2023-05-25T09:00:12.312Z,21.21
2023-05-25T09:02:51.093Z,21.35
2023-05-25T09:05:19.144Z,21.64
2023-05-25T09:07:46.928Z,21.56
2023-05-25T09:10:15.163Z,21.75
2023-05-25T09:12:44.531Z,21.89
2023-05-25T09:15:12.569Z,21.91
2023-05-25T09:17:41.454Z,21.81
2023-05-25T09:20:15.629Z,21.81
2023-05-25T09:22:44.524Z,22.43
2023-05-25T09:25:15.136Z,22.46
2023-05-25T09:27:42.853Z,23.38
2023-05-25T09:30:10.633Z,23.48
2023-05-25T09:32:39.430Z,23.49
2023-05-25T09:35:08.115Z,23.74
2023-05-25T09:37:36.691Z,23.55
2023-05-25T09:40:11.648Z,23.80
2023-05-25T09:42:39.086Z,23.93
2023-05-25T09:45:06.953Z,24.16
2023-05-25T09:47:36.710Z,24.04
2023-05-25T09:50:04.491Z,24.43
2023-05-25T09:52:32.240Z,24.29
2023-05-25T09:54:59.622Z,24.88
2023-05-25T09:57:27.985Z,24.95
2023-05-25T09:59:55.346Z,24.65
2023-05-25T10:02:22.756Z,24.51
2023-05-25T10:04:50.492Z,25.15
2023-05-25T10:07:17.952Z,24.75
2023-05-25T10:09:51.264Z,24.81
2023-05-25T10:12:21.157Z,24.87
2023-05-25T10:14:50.913Z,25.07
2023-05-25T10:17:24.635Z,25.49
2023-05-25T10:19:57.503Z,25.03
2023-05-25T10:22:44.143Z,25.23
2023-05-25T10:25:23.177Z,24.84
2023-05-25T10:27:54.384Z,25.13
2023-05-25T10:30:23.694Z,25.20
2023-05-25T10:32:52.168Z,25.40
2023-05-25T10:35:19.747Z,25.71
2023-05-25T10:37:47.667Z,25.17
2023-05-25T10:40:16.064Z,25.43
2023-05-25T10:42:45.664Z,25.07
2023-05-25T10:45:13.707Z,25.09
2023-05-25T10:47:46.360Z,25.63
2023-05-25T10:50:27.338Z,25.16
2023-05-25T10:53:02.519Z,25.34
2023-05-25T10:55:54.232Z,25.70
2023-05-25T10:58:22.704Z,25.99
2023-05-25T11:01:10.029Z,25.60
2023-05-25T11:04:12.304Z,25.91
2023-05-25T11:06:45.765Z,25.81
2023-05-25T11:09:27.795Z,26.06
2023-05-25T11:12:02.363Z,26.33
2023-05-25T11:14:31.375Z,26.64
2023-05-25T11:17:10.337Z,26.78
2023-05-25T11:19:51.097Z,26.81
2023-05-25T11:22:32.317Z,26.82
2023-05-25T11:25:01.632Z,26.63
2023-05-25T11:27:31.623Z,26.47
2023-05-25T11:29:59.981Z,26.71
2023-05-25T11:32:28.377Z,26.91
2023-05-25T11:34:58.238Z,26.40
2023-05-25T11:37:28.925Z,26.85
2023-05-25T11:39:56.855Z,26.94
2023-05-25T11:42:25.775Z,26.99
2023-05-25T11:44:53.689Z,26.58
2023-05-25T11:47:23.670Z,26.60
2023-05-25T11:49:51.218Z,26.92
2023-05-25T11:52:20.399Z,27.01
2023-05-25T11:54:47.905Z,27.10
2023-05-25T11:57:26.095Z,27.18
2023-05-25T11:59:55.503Z,27.50
2023-05-25T12:02:23.903Z,27.39
2023-05-25T12:05:01.520Z,27.69
2023-05-25T12:07:30.629Z,27.46
2023-05-25T12:10:08.883Z,27.59
2023-05-25T12:12:51.792Z,27.56
2023-05-25T12:15:23.886Z,27.74
2023-05-25T12:17:52.110Z,27.76
2023-05-25T12:20:20.661Z,27.77
2023-05-25T12:22:48.194Z,26.93
2023-05-25T12:25:19.769Z,27.49
2023-05-25T12:27:47.340Z,27.16
2023-05-25T12:30:14.689Z,27.04
2023-05-25T12:33:01.720Z,27.04
2023-05-25T12:35:31.605Z,27.25
2023-05-25T12:38:12.909Z,27.49
2023-05-25T12:40:42.000Z,27.90
2023-05-25T12:43:11.830Z,27.34
2023-05-25T12:45:42.978Z,27.51
2023-05-25T12:48:11.098Z,27.35
2023-05-25T12:50:58.063Z,27.52
2023-05-25T12:53:27.237Z,27.52
2023-05-25T12:56:02.756Z,27.69
2023-05-25T12:58:30.213Z,27.45
2023-05-25T13:00:57.851Z,27.35
2023-05-25T13:03:26.293Z,27.47
2023-05-25T13:06:00.795Z,27.57
2023-05-25T13:08:29.289Z,27.57
2023-05-25T13:10:56.759Z,27.49
2023-05-25T13:13:24.095Z,27.54
2023-05-25T13:15:51.482Z,27.45
2023-05-25T13:18:19.022Z,27.43
2023-05-25T13:20:49.827Z,27.48
2023-05-25T13:23:18.569Z,27.49
2023-05-25T13:25:46.992Z,27.57
2023-05-25T13:28:15.803Z,27.71
2023-05-25T13:30:43.525Z,27.98
2023-05-25T13:33:11.218Z,27.77
2023-05-25T13:35:45.881Z,27.82
2023-05-25T13:38:15.727Z,27.88
2023-05-25T13:40:45.490Z,27.71
2023-05-25T13:43:13.187Z,27.69
2023-05-25T13:45:40.619Z,27.38
2023-05-25T13:48:08.854Z,27.37
2023-05-25T13:50:36.522Z,27.43
2023-05-25T13:53:03.870Z,27.33
2023-05-25T13:55:31.296Z,27.34
2023-05-25T13:57:58.750Z,27.41
2023-05-25T14:00:26.444Z,27.35
2023-05-25T14:02:54.160Z,27.51
2023-05-25T14:05:21.946Z,27.44
2023-05-25T14:07:49.468Z,27.66
2023-05-25T14:10:17.051Z,27.30
2023-05-25T14:12:44.725Z,27.43
2023-05-25T14:15:12.179Z,27.60
2023-05-25T14:17:39.603Z,27.49
2023-05-25T14:20:07.705Z,27.38
2023-05-25T14:22:36.146Z,27.11
2023-05-25T14:25:03.780Z,27.14
2023-05-25T14:27:31.305Z,27.07
2023-05-25T14:29:58.653Z,27.06
2023-05-25T14:32:26.077Z,27.23
2023-05-25T14:34:53.610Z,27.24
2023-05-25T14:37:20.902Z,27.04
2023-05-25T14:39:48.444Z,27.09
2023-05-25T14:42:15.953Z,26.85
2023-05-25T14:44:43.391Z,27.05
2023-05-25T14:47:11.016Z,26.98
2023-05-25T14:49:38.420Z,26.88
2023-05-25T14:52:06.000Z,26.81
2023-05-25T14:54:33.356Z,26.56
2023-05-25T14:57:01.840Z,26.57
2023-05-25T14:59:29.312Z,26.55
2023-05-25T15:01:56.685Z,26.81
2023-05-25T15:04:26.406Z,26.87
2023-05-25T15:06:54.127Z,26.81
2023-05-25T15:09:22.636Z,26.79
2023-05-25T15:11:49.995Z,26.81
2023-05-25T15:14:17.394Z,26.83
2023-05-25T15:16:44.913Z,26.65
2023-05-25T15:19:13.924Z,26.62
2023-05-25T15:21:43.362Z,26.54
2023-05-25T15:24:13.887Z,26.63
2023-05-25T15:26:41.237Z,26.50
2023-05-25T15:29:08.614Z,26.49
2023-05-25T15:31:36.205Z,26.48
2023-05-25T15:34:03.617Z,26.51
2023-05-25T15:36:31.379Z,26.32
2023-05-25T15:38:58.781Z,26.37
2023-05-25T15:41:27.063Z,26.38
2023-05-25T15:44:01.452Z,26.26
2023-05-25T15:46:29.292Z,26.28
2023-05-25T15:48:57.543Z,26.32
2023-05-25T15:51:24.959Z,26.37
2023-05-25T15:53:52.465Z,26.37
2023-05-25T15:56:19.825Z,26.39
2023-05-25T15:58:49.349Z,26.50
2023-05-25T16:01:16.864Z,26.45
2023-05-25T16:03:44.967Z,26.34
2023-05-25T16:06:19.131Z,26.33
2023-05-25T16:08:46.694Z,26.28
2023-05-25T16:11:14.635Z,26.31
2023-05-25T16:13:41.999Z,26.44
2023-05-25T16:16:09.892Z,26.43
2023-05-25T16:18:37.606Z,26.44
2023-05-25T16:21:05.303Z,26.38
2023-05-25T16:23:32.716Z,26.21
2023-05-25T16:26:00.086Z,26.21
2023-05-25T16:28:28.536Z,26.19
2023-05-25T16:30:56.186Z,26.11
2023-05-25T16:33:23.656Z,26.06
2023-05-25T16:35:53.736Z,26.03
2023-05-25T16:38:21.184Z,25.99
2023-05-25T16:40:48.617Z,25.88
2023-05-25T16:43:16.068Z,25.89
2023-05-25T16:45:43.687Z,26.01
2023-05-25T16:48:11.352Z,25.97
2023-05-25T16:50:39.897Z,25.94
2023-05-25T16:53:07.302Z,25.93
2023-05-25T16:55:37.254Z,25.94
2023-05-25T16:58:04.705Z,25.96
2023-05-25T17:00:33.491Z,25.91
2023-05-25T17:03:01.006Z,25.89
2023-05-25T17:05:28.530Z,25.70
2023-05-25T17:07:57.022Z,25.77
2023-05-25T17:10:28.236Z,25.80
2023-05-25T17:12:56.046Z,25.79
2023-05-25T17:15:23.406Z,25.76
2023-05-25T17:17:50.868Z,25.82
2023-05-25T17:20:18.406Z,25.82
2023-05-25T17:22:47.944Z,25.75
2023-05-25T17:25:15.996Z,25.64
2023-05-25T17:27:43.391Z,25.53
2023-05-25T17:30:11.126Z,25.41
2023-05-25T17:32:42.927Z,25.39
2023-05-25T17:35:10.413Z,25.28
2023-05-25T17:37:37.780Z,25.32
2023-05-25T17:40:05.629Z,25.18
2023-05-25T17:42:35.856Z,25.22
2023-05-25T17:45:03.360Z,25.10
2023-05-25T17:47:32.374Z,24.99
2023-05-25T17:49:59.756Z,24.88
2023-05-25T17:52:29.385Z,24.81
2023-05-25T17:54:56.792Z,24.82
2023-05-25T17:57:24.336Z,24.74
2023-05-25T17:59:51.790Z,24.72
2023-05-25T18:02:19.330Z,24.71
2023-05-25T18:04:47.227Z,24.65
2023-05-25T18:07:14.718Z,24.61
2023-05-25T18:09:42.077Z,24.59
2023-05-25T18:12:10.048Z,24.46
2023-05-25T18:14:38.259Z,24.50
2023-05-25T18:17:07.500Z,24.44
2023-05-25T18:19:35.341Z,24.38
2023-05-25T18:22:02.754Z,24.33
2023-05-25T18:24:33.762Z,24.37
2023-05-25T18:27:03.855Z,24.39
2023-05-25T18:29:31.257Z,24.31
2023-05-25T18:31:58.680Z,24.20
2023-05-25T18:34:26.081Z,24.18
2023-05-25T18:36:54.376Z,24.22
2023-05-25T18:39:21.872Z,24.17
2023-05-25T18:41:49.356Z,24.22
2023-05-25T18:44:17.210Z,24.07
2023-05-25T18:46:47.080Z,24.03
2023-05-25T18:49:15.117Z,24.04
2023-05-25T18:51:43.363Z,23.93
2023-05-25T18:54:11.353Z,23.92
2023-05-25T18:56:38.940Z,23.92
2023-05-25T18:59:06.446Z,23.92
2023-05-25T19:01:33.893Z,23.90
2023-05-25T19:04:02.240Z,23.86
2023-05-25T19:06:29.646Z,23.72
2023-05-25T19:08:58.275Z,23.78
2023-05-25T19:11:26.892Z,23.78
2023-05-25T19:13:57.478Z,23.74
2023-05-25T19:16:26.391Z,23.68
2023-05-25T19:18:55.101Z,23.62
2023-05-25T19:21:23.565Z,23.52
2023-05-25T19:23:52.313Z,23.53
2023-05-25T19:26:24.135Z,23.44
2023-05-25T19:28:53.124Z,23.47
2023-05-25T19:31:23.545Z,23.37
2023-05-25T19:33:51.128Z,23.33
2023-05-25T19:36:22.873Z,23.30
2023-05-25T19:38:53.797Z,23.34
2023-05-25T19:41:22.988Z,23.29
2023-05-25T19:43:52.929Z,23.18
2023-05-25T19:46:21.351Z,23.23
2023-05-25T19:48:49.094Z,23.16
2023-05-25T19:51:19.574Z,23.17
2023-05-25T19:53:49.206Z,23.12
2023-05-25T19:56:17.811Z,23.05
2023-05-25T19:58:49.318Z,22.99
2023-05-25T20:01:19.349Z,23.05
2023-05-25T20:03:53.210Z,23.03
2023-05-25T20:06:25.093Z,23.02
2023-05-25T20:08:53.613Z,22.96
2023-05-25T20:11:21.152Z,22.97
2023-05-25T20:13:51.268Z,22.92
2023-05-25T20:16:20.752Z,22.88
2023-05-25T20:18:48.926Z,22.82
2023-05-25T20:21:21.945Z,22.77
2023-05-25T20:23:52.579Z,22.71
2023-05-25T20:26:21.023Z,22.72
2023-05-25T20:28:48.409Z,22.67
2023-05-25T20:31:21.893Z,22.62
2023-05-25T20:33:49.571Z,22.67
2023-05-25T20:36:18.855Z,22.68
2023-05-25T20:38:48.399Z,22.61
2023-05-25T20:41:17.209Z,22.56
2023-05-25T20:43:47.042Z,22.56
2023-05-25T20:46:19.585Z,22.48
2023-05-25T20:48:49.639Z,22.48
2023-05-25T20:51:18.045Z,22.41
2023-05-25T20:53:46.697Z,22.36
2023-05-25T20:56:15.036Z,22.38
2023-05-25T20:58:43.745Z,22.40
2023-05-25T21:01:15.307Z,22.36
2023-05-25T21:03:44.164Z,22.38
2023-05-25T21:06:18.023Z,22.39
2023-05-25T21:08:45.468Z,22.28
2023-05-25T21:11:12.884Z,22.32
2023-05-25T21:13:40.489Z,22.25
2023-05-25T21:16:07.996Z,22.21
2023-05-25T21:18:36.011Z,22.16
2023-05-25T21:21:04.679Z,22.16
2023-05-25T21:23:33.139Z,22.13
2023-05-25T21:26:02.875Z,22.06
2023-05-25T21:28:31.568Z,22.08
2023-05-25T21:31:03.421Z,22.19
2023-05-25T21:33:35.627Z,22.31
2023-05-25T21:36:03.933Z,22.19
2023-05-25T21:38:33.448Z,21.87
2023-05-25T21:41:01.365Z,21.51
2023-05-25T21:43:28.795Z,21.50
2023-05-25T21:45:57.861Z,21.46
2023-05-25T21:48:25.321Z,21.52
2023-05-25T21:50:53.409Z,21.54
2023-05-25T21:53:22.317Z,21.50
2023-05-25T21:55:49.681Z,21.48
2023-05-25T21:58:17.584Z,21.49
2023-05-25T22:00:45.368Z,21.46
2023-05-25T22:03:14.424Z,21.46
2023-05-25T22:05:42.206Z,21.55
2023-05-25T22:08:09.795Z,21.43
2023-05-25T22:10:38.413Z,21.45
2023-05-25T22:13:05.728Z,21.45
2023-05-25T22:15:33.185Z,21.44
2023-05-25T22:18:01.406Z,21.32
2023-05-25T22:20:28.837Z,21.16
2023-05-25T22:22:56.177Z,21.07
2023-05-25T22:25:23.561Z,21.06
2023-05-25T22:27:50.888Z,21.13
2023-05-25T22:30:18.250Z,21.12
2023-05-25T22:32:45.671Z,21.08
2023-05-25T22:35:13.019Z,21.07
2023-05-25T22:37:40.943Z,21.08
2023-05-25T22:40:08.760Z,21.04
2023-05-25T22:42:36.047Z,21.03
2023-05-25T22:45:03.598Z,21.03
2023-05-25T22:47:31.054Z,21.01
2023-05-25T22:49:58.348Z,20.97
2023-05-25T22:52:25.650Z,20.84
2023-05-25T22:54:52.929Z,20.78
2023-05-25T22:57:20.674Z,20.71
2023-05-25T22:59:47.940Z,20.68
2023-05-25T23:02:15.452Z,20.68
2023-05-25T23:04:42.901Z,20.61
2023-05-25T23:07:10.154Z,20.52
2023-05-25T23:09:37.436Z,20.37
2023-05-25T23:12:05.126Z,20.28
2023-05-25T23:14:32.545Z,20.26
2023-05-25T23:16:59.841Z,20.18
2023-05-25T23:19:27.247Z,20.18
2023-05-25T23:21:55.824Z,20.11
2023-05-25T23:24:23.221Z,20.13
2023-05-25T23:26:50.682Z,20.21
2023-05-25T23:29:17.909Z,20.25
2023-05-25T23:31:45.268Z,20.12
2023-05-25T23:34:12.552Z,20.11
2023-05-25T23:36:40.639Z,20.01
2023-05-25T23:39:08.147Z,19.99
2023-05-25T23:41:35.684Z,19.92
2023-05-25T23:44:03.051Z,19.99
2023-05-25T23:46:31.801Z,19.87
2023-05-25T23:48:59.247Z,19.83
2023-05-25T23:51:26.664Z,19.73
2023-05-25T23:53:53.911Z,19.77
2023-05-25T23:56:21.962Z,19.80
2023-05-25T23:58:49.390Z,19.60
